createdAt,value
2023-05-07T00:00:30.985Z,100027.13
2023-05-07T00:01:02.348Z,100030.69
2023-05-07T00:01:33.685Z,100028.78
2023-05-07T00:02:05.089Z,100030.66
2023-05-07T00:02:36.574Z,100035.84
2023-05-07T00:03:08.773Z,100027.69
2023-05-07T00:03:40.471Z,100028.75
2023-05-07T00:04:12.088Z,100037.22
2023-05-07T00:04:43.654Z,100027.41
2023-05-07T00:05:15.300Z,100030.41
2023-05-07T00:05:46.972Z,100033.66
2023-05-07T00:06:18.393Z,100035.84
2023-05-07T00:06:49.819Z,100034.75
2023-05-07T00:07:21.199Z,100035.31
2023-05-07T00:07:52.618Z,100032.56
2023-05-07T00:08:24.047Z,100035.31
2023-05-07T00:08:55.417Z,100041.03
2023-05-07T00:09:26.813Z,100043.16
2023-05-07T00:09:58.174Z,100033.91
2023-05-07T00:10:29.579Z,100041.00
2023-05-07T00:11:00.942Z,100037.47
2023-05-07T00:11:32.436Z,100032.03
2023-05-07T00:12:03.859Z,100040.72
2023-05-07T00:12:35.289Z,100036.91
2023-05-07T00:13:06.689Z,100034.19
2023-05-07T00:13:38.118Z,100038.00
2023-05-07T00:14:09.464Z,100042.09
2023-05-07T00:14:40.789Z,100040.72
2023-05-07T00:15:12.403Z,100037.72
2023-05-07T00:15:44.016Z,100039.09
2023-05-07T00:16:15.414Z,100039.34
2023-05-07T00:16:46.971Z,100041.81
2023-05-07T00:17:18.329Z,100037.72
2023-05-07T00:17:49.711Z,100039.34
2023-05-07T00:18:21.111Z,100036.38
2023-05-07T00:18:52.441Z,100045.91
2023-05-07T00:19:23.782Z,100041.28
2023-05-07T00:19:55.222Z,100033.13
2023-05-07T00:20:26.648Z,100038.03
2023-05-07T00:20:58.036Z,100037.75
2023-05-07T00:21:29.461Z,100038.84
2023-05-07T00:22:00.979Z,100041.28
2023-05-07T00:22:32.441Z,100038.84
2023-05-07T00:23:05.019Z,100045.38
2023-05-07T00:23:36.436Z,100046.47
2023-05-07T00:24:07.969Z,100035.84
2023-05-07T00:24:39.365Z,100044.28
2023-05-07T00:25:10.951Z,100052.19
2023-05-07T00:25:42.301Z,100043.22
2023-05-07T00:26:13.770Z,100042.66
2023-05-07T00:26:45.217Z,100046.75
2023-05-07T00:27:16.704Z,100043.53
2023-05-07T00:27:48.136Z,100044.28
2023-05-07T00:28:19.502Z,100041.28
2023-05-07T00:28:50.876Z,100039.13
2023-05-07T00:29:22.243Z,100044.84
2023-05-07T00:29:53.610Z,100048.38
2023-05-07T00:30:24.992Z,100038.31
2023-05-07T00:30:56.418Z,100048.66
2023-05-07T00:31:27.874Z,100042.41
2023-05-07T00:31:59.437Z,100045.66
2023-05-07T00:32:31.017Z,100048.38
2023-05-07T00:33:02.498Z,100045.13
2023-05-07T00:33:33.968Z,100047.09
2023-05-07T00:34:05.351Z,100050.88
2023-05-07T00:34:36.690Z,100045.13
2023-05-07T00:35:08.105Z,100044.28
2023-05-07T00:35:39.461Z,100045.66
2023-05-07T00:36:10.858Z,100042.66
2023-05-07T00:36:42.287Z,100043.22
2023-05-07T00:37:13.672Z,100038.03
2023-05-07T00:37:45.120Z,100046.75
2023-05-07T00:38:16.445Z,100047.28
2023-05-07T00:38:47.818Z,100046.47
2023-05-07T00:39:19.270Z,100047.28
2023-05-07T00:39:50.657Z,100038.59
2023-05-07T00:40:22.036Z,100044.91
2023-05-07T00:40:53.519Z,100045.94
2023-05-07T00:41:24.868Z,100044.03
2023-05-07T00:41:56.222Z,100048.38
2023-05-07T00:42:27.592Z,100045.13
2023-05-07T00:42:59.135Z,100041.59
2023-05-07T00:43:30.792Z,100044.09
2023-05-07T00:44:02.132Z,100037.28
2023-05-07T00:44:33.531Z,100044.31
2023-05-07T00:45:04.903Z,100045.72
2023-05-07T00:45:36.286Z,100044.91
2023-05-07T00:46:07.771Z,100041.94
2023-05-07T00:46:39.389Z,100042.19
2023-05-07T00:47:10.819Z,100042.47
2023-05-07T00:47:42.194Z,100037.00
2023-05-07T00:48:13.657Z,100034.56
2023-05-07T00:48:45.143Z,100039.47
2023-05-07T00:49:16.493Z,100042.72
2023-05-07T00:49:47.897Z,100043.28
2023-05-07T00:50:19.280Z,100037.84
2023-05-07T00:50:50.646Z,100039.75
2023-05-07T00:51:22.024Z,100040.81
2023-05-07T00:51:53.388Z,100039.75
2023-05-07T00:52:24.781Z,100038.94
2023-05-07T00:52:56.193Z,100039.75
2023-05-07T00:53:27.662Z,100032.13
2023-05-07T00:53:59.100Z,100036.50
2023-05-07T00:54:30.514Z,100035.69
2023-05-07T00:55:01.992Z,100036.50
2023-05-07T00:55:33.364Z,100037.03
2023-05-07T00:56:04.727Z,100035.94
2023-05-07T00:56:36.171Z,100041.38
2023-05-07T00:57:07.576Z,100034.88
2023-05-07T00:57:38.946Z,100035.97
2023-05-07T00:58:10.316Z,100038.13
2023-05-07T00:58:41.725Z,100038.38
2023-05-07T00:59:13.133Z,100035.38
2023-05-07T00:59:44.597Z,100036.50
2023-05-07T01:00:16.010Z,100034.88
2023-05-07T01:00:47.386Z,100036.22
2023-05-07T01:01:19.363Z,100034.31
2023-05-07T01:01:50.828Z,100038.38
2023-05-07T01:02:22.304Z,100034.28
2023-05-07T01:02:53.745Z,100039.22
2023-05-07T01:03:25.515Z,100034.88
2023-05-07T01:03:57.444Z,100031.59
2023-05-07T01:04:29.268Z,100036.78
2023-05-07T01:05:01.142Z,100032.72
2023-05-07T01:05:32.874Z,100032.69
2023-05-07T01:06:04.647Z,100035.97
2023-05-07T01:06:36.347Z,100037.88
2023-05-07T01:07:08.438Z,100039.50
2023-05-07T01:07:39.924Z,100031.34
2023-05-07T01:08:11.332Z,100033.78
2023-05-07T01:08:42.721Z,100029.44
2023-05-07T01:09:14.174Z,100031.06
2023-05-07T01:09:45.565Z,100030.00
2023-05-07T01:10:16.879Z,100031.09
2023-05-07T01:10:48.231Z,100030.28
2023-05-07T01:11:19.564Z,100033.53
2023-05-07T01:11:50.861Z,100025.66
2023-05-07T01:12:22.287Z,100029.44
2023-05-07T01:12:53.752Z,100033.00
2023-05-07T01:13:25.235Z,100027.81
2023-05-07T01:13:56.659Z,100031.09
2023-05-07T01:14:28.116Z,100028.09
2023-05-07T01:14:59.482Z,100019.94
2023-05-07T01:15:30.842Z,100022.09
2023-05-07T01:16:02.196Z,100022.66
2023-05-07T01:16:33.561Z,100025.38
2023-05-07T01:17:04.906Z,100022.38
2023-05-07T01:17:36.395Z,100016.41
2023-05-07T01:18:07.883Z,100023.47
2023-05-07T01:18:39.357Z,100024.03
2023-05-07T01:19:10.877Z,100019.66
2023-05-07T01:19:42.273Z,100023.75
2023-05-07T01:20:13.923Z,100024.56
2023-05-07T01:20:45.576Z,100018.56
2023-05-07T01:21:16.906Z,100019.38
2023-05-07T01:21:48.279Z,100020.22
2023-05-07T01:22:19.636Z,100026.75
2023-05-07T01:22:51.041Z,100013.69
2023-05-07T01:23:22.457Z,100021.03
2023-05-07T01:23:53.806Z,100021.84
2023-05-07T01:24:25.165Z,100018.31
2023-05-07T01:24:56.534Z,100016.94
2023-05-07T01:25:27.959Z,100018.84
2023-05-07T01:25:59.337Z,100025.09
2023-05-07T01:26:30.690Z,100021.84
2023-05-07T01:27:02.130Z,100020.72
2023-05-07T01:27:33.526Z,100015.56
2023-05-07T01:28:04.933Z,100019.13
2023-05-07T01:28:36.291Z,100013.94
2023-05-07T01:29:07.666Z,100019.94
2023-05-07T01:29:39.069Z,100019.13
2023-05-07T01:30:10.714Z,100017.50
2023-05-07T01:30:42.317Z,100018.31
2023-05-07T01:31:13.695Z,100021.84
2023-05-07T01:31:45.210Z,100016.41
2023-05-07T01:32:16.556Z,100016.41
2023-05-07T01:32:47.979Z,100017.75
2023-05-07T01:33:19.383Z,100021.28
2023-05-07T01:33:50.852Z,100013.94
2023-05-07T01:34:22.274Z,100020.47
2023-05-07T01:34:53.690Z,100021.03
2023-05-07T01:35:25.241Z,100019.94
2023-05-07T01:35:56.608Z,100021.28
2023-05-07T01:36:28.167Z,100016.94
2023-05-07T01:37:02.369Z,100022.66
2023-05-07T01:37:33.698Z,100020.22
2023-05-07T01:38:05.066Z,100022.38
2023-05-07T01:38:36.472Z,100021.84
2023-05-07T01:39:07.912Z,100021.28
2023-05-07T01:39:39.285Z,100016.41
2023-05-07T01:40:10.865Z,100016.69
2023-05-07T01:40:42.442Z,100009.06
2023-05-07T01:41:13.818Z,100015.31
2023-05-07T01:41:45.208Z,100000.63
2023-05-07T01:42:16.562Z,100009.88
2023-05-07T01:42:47.948Z,100007.69
2023-05-07T01:43:19.312Z,100015.56
2023-05-07T01:43:50.710Z,100011.22
2023-05-07T01:44:22.030Z,100006.63
2023-05-07T01:44:53.359Z,100010.41
2023-05-07T01:45:24.722Z,100006.06
2023-05-07T01:45:56.099Z,100006.06
2023-05-07T01:46:27.520Z,100013.13
2023-05-07T01:46:58.977Z,100008.50
2023-05-07T01:47:30.323Z,100013.13
2023-05-07T01:48:01.796Z,100009.59
2023-05-07T01:48:33.239Z,100009.06
2023-05-07T01:49:04.699Z,100009.06
2023-05-07T01:49:36.098Z,100015.88
2023-05-07T01:50:07.494Z,100010.44
2023-05-07T01:50:38.924Z,100009.34
2023-05-07T01:51:10.422Z,100009.34
2023-05-07T01:51:41.859Z,100009.59
2023-05-07T01:52:13.313Z,100009.31
2023-05-07T01:52:44.741Z,100011.78
2023-05-07T01:53:16.152Z,99999.81
2023-05-07T01:53:47.561Z,100011.78
2023-05-07T01:54:19.096Z,100009.31
2023-05-07T01:54:50.628Z,100008.22
2023-05-07T01:55:22.013Z,100004.16
2023-05-07T01:55:53.413Z,100015.31
2023-05-07T01:56:24.835Z,100012.06
2023-05-07T01:56:56.235Z,100013.69
2023-05-07T01:57:27.664Z,100009.06
2023-05-07T01:57:59.010Z,100008.25
2023-05-07T01:58:30.401Z,100004.19
2023-05-07T01:59:01.994Z,100013.16
2023-05-07T01:59:33.639Z,100011.81
2023-05-07T02:00:05.024Z,100010.97
2023-05-07T02:00:36.433Z,100009.34
2023-05-07T02:01:07.976Z,100012.06
2023-05-07T02:01:39.496Z,100009.34
2023-05-07T02:02:11.031Z,100012.88
2023-05-07T02:02:42.552Z,100009.91
2023-05-07T02:03:14.312Z,100013.44
2023-05-07T02:03:45.931Z,100008.81
2023-05-07T02:04:17.498Z,100017.78
2023-05-07T02:04:49.015Z,100016.69
2023-05-07T02:05:20.366Z,100021.03
2023-05-07T02:05:51.718Z,100012.63
2023-05-07T02:06:23.095Z,100018.06
2023-05-07T02:06:54.483Z,100013.44
2023-05-07T02:07:25.877Z,100018.06
2023-05-07T02:07:57.289Z,100020.78
2023-05-07T02:08:28.623Z,100012.34
2023-05-07T02:09:00.005Z,100012.06
2023-05-07T02:09:31.425Z,100019.69
2023-05-07T02:10:02.826Z,100021.03
2023-05-07T02:10:34.162Z,100020.78
2023-05-07T02:11:05.530Z,100021.31
2023-05-07T02:11:36.946Z,100022.69
2023-05-07T02:12:08.305Z,100018.59
2023-05-07T02:12:39.667Z,100023.50
2023-05-07T02:13:11.111Z,100022.94
2023-05-07T02:13:42.581Z,100019.69
2023-05-07T02:14:13.924Z,100019.97
2023-05-07T02:14:45.247Z,100022.41
2023-05-07T02:15:16.765Z,100022.41
2023-05-07T02:15:48.180Z,100025.13
2023-05-07T02:16:19.652Z,100022.94
2023-05-07T02:16:51.147Z,100027.56
2023-05-07T02:17:22.742Z,100020.22
2023-05-07T02:17:54.164Z,100016.16
2023-05-07T02:18:25.594Z,100015.88
2023-05-07T02:18:56.960Z,100024.59
2023-05-07T02:19:28.345Z,100019.16
2023-05-07T02:19:59.676Z,100016.16
2023-05-07T02:20:31.129Z,100015.59
2023-05-07T02:21:02.493Z,100015.34
2023-05-07T02:21:33.929Z,100020.50
2023-05-07T02:22:05.303Z,100014.78
2023-05-07T02:22:36.664Z,100010.97
2023-05-07T02:23:08.077Z,100014.78
2023-05-07T02:23:39.434Z,100008.81
2023-05-07T02:24:10.891Z,100006.09
2023-05-07T02:24:42.262Z,100006.91
2023-05-07T02:25:13.638Z,100002.28
2023-05-07T02:25:45.056Z,100006.91
2023-05-07T02:26:16.447Z,100006.09
2023-05-07T02:26:47.864Z,99998.47
2023-05-07T02:27:19.244Z,100010.97
2023-05-07T02:27:50.584Z,99995.75
2023-05-07T02:28:21.921Z,100003.09
2023-05-07T02:28:53.353Z,100001.72
2023-05-07T02:29:24.733Z,99995.47
2023-05-07T02:29:56.073Z,100002.81
2023-05-07T02:30:27.433Z,100008.25
2023-05-07T02:30:58.856Z,100000.63
2023-05-07T02:31:30.283Z,100004.72
2023-05-07T02:32:01.718Z,100006.63
2023-05-07T02:32:33.156Z,100007.19
2023-05-07T02:33:04.606Z,100014.25
2023-05-07T02:33:36.046Z,100012.63
2023-05-07T02:34:07.548Z,100011.53
2023-05-07T02:34:38.951Z,100014.53
2023-05-07T02:35:10.352Z,100014.53
2023-05-07T02:35:41.781Z,100017.25
2023-05-07T02:36:13.166Z,100013.97
2023-05-07T02:36:44.748Z,100013.72
2023-05-07T02:37:16.155Z,100013.16
2023-05-07T02:37:47.527Z,100012.06
2023-05-07T02:38:18.867Z,100020.50
2023-05-07T02:38:50.225Z,100015.34
2023-05-07T02:39:21.621Z,100011.28
2023-05-07T02:39:52.990Z,100018.63
2023-05-07T02:40:24.410Z,100010.19
2023-05-07T02:40:55.772Z,100011.25
2023-05-07T02:41:27.187Z,100010.19
2023-05-07T02:41:58.553Z,100013.19
2023-05-07T02:42:29.994Z,100009.38
2023-05-07T02:43:01.352Z,100010.44
2023-05-07T02:43:32.754Z,100007.72
2023-05-07T02:44:04.171Z,100009.09
2023-05-07T02:44:35.557Z,100005.00
2023-05-07T02:45:06.940Z,100006.09
2023-05-07T02:45:38.393Z,100007.72
2023-05-07T02:46:09.887Z,100005.28
2023-05-07T02:46:41.584Z,100010.16
2023-05-07T02:47:12.966Z,100004.19
2023-05-07T02:47:44.386Z,100003.09
2023-05-07T02:48:15.863Z,100001.19
2023-05-07T02:48:47.252Z,100005.81
2023-05-07T02:49:18.624Z,100005.00
2023-05-07T02:49:50.007Z,100006.63
2023-05-07T02:50:21.404Z,100006.63
2023-05-07T02:50:52.764Z,100004.72
2023-05-07T02:51:25.495Z,100005.53
2023-05-07T02:51:57.674Z,100006.38
2023-05-07T02:52:29.021Z,100005.56
2023-05-07T02:53:00.436Z,100003.66
2023-05-07T02:53:31.841Z,100004.75
2023-05-07T02:54:03.208Z,100006.91
2023-05-07T02:54:34.585Z,100004.47
2023-05-07T02:55:05.923Z,100002.31
2023-05-07T02:55:37.310Z,100002.84
2023-05-07T02:56:08.754Z,100005.03
2023-05-07T02:56:40.142Z,99999.59
2023-05-07T02:57:11.610Z,99999.31
2023-05-07T02:57:42.997Z,100000.13
2023-05-07T02:58:14.357Z,99999.03
2023-05-07T02:58:45.842Z,99996.88
2023-05-07T02:59:17.247Z,99996.88
2023-05-07T02:59:48.627Z,99999.59
2023-05-07T03:00:19.960Z,100003.41
2023-05-07T03:00:51.428Z,100004.22
2023-05-07T03:01:22.856Z,100004.47
2023-05-07T03:01:54.205Z,99999.03
2023-05-07T03:02:25.685Z,100001.75
2023-05-07T03:02:57.293Z,100002.56
2023-05-07T03:03:28.776Z,99996.31
2023-05-07T03:04:00.267Z,99995.50
2023-05-07T03:04:31.731Z,99998.22
2023-05-07T03:05:03.243Z,99997.38
2023-05-07T03:05:34.680Z,99999.28
2023-05-07T03:06:06.072Z,99985.69
2023-05-07T03:06:37.452Z,99995.75
2023-05-07T03:07:08.808Z,100004.47
2023-05-07T03:07:40.289Z,99993.03
2023-05-07T03:08:11.733Z,99995.47
2023-05-07T03:08:43.112Z,99997.38
2023-05-07T03:09:14.476Z,99993.31
2023-05-07T03:09:45.872Z,99987.06
2023-05-07T03:10:17.262Z,99989.50
2023-05-07T03:10:48.574Z,99995.75
2023-05-07T03:11:19.947Z,99995.47
2023-05-07T03:11:51.329Z,99996.28
2023-05-07T03:12:22.713Z,99994.41
2023-05-07T03:12:54.172Z,99993.84
2023-05-07T03:13:25.703Z,99993.59
2023-05-07T03:13:57.157Z,99988.69
2023-05-07T03:14:28.617Z,99996.84
2023-05-07T03:15:00.064Z,99994.66
2023-05-07T03:15:31.416Z,99985.13
2023-05-07T03:16:02.832Z,99986.50
2023-05-07T03:16:34.326Z,99991.41
2023-05-07T03:17:05.760Z,99987.59
2023-05-07T03:17:37.182Z,99990.31
2023-05-07T03:18:08.852Z,99995.75
2023-05-07T03:18:40.343Z,99991.94
2023-05-07T03:19:11.863Z,99999.53
2023-05-07T03:19:43.226Z,100001.19
2023-05-07T03:20:14.727Z,99995.22
2023-05-07T03:20:46.485Z,99995.47
2023-05-07T03:21:17.957Z,99995.47
2023-05-07T03:21:49.351Z,100001.47
2023-05-07T03:22:20.768Z,100005.25
2023-05-07T03:22:52.142Z,99994.41
2023-05-07T03:23:25.004Z,100002.81
2023-05-07T03:23:56.593Z,100002.56
2023-05-07T03:24:27.972Z,100000.38
2023-05-07T03:24:59.367Z,99992.78
2023-05-07T03:25:30.727Z,99998.22
2023-05-07T03:26:02.146Z,99984.59
2023-05-07T03:26:33.668Z,99999.56
2023-05-07T03:27:05.128Z,99995.75
2023-05-07T03:27:36.533Z,100000.09
2023-05-07T03:28:07.912Z,100000.09
2023-05-07T03:28:39.337Z,99994.66
2023-05-07T03:29:10.756Z,99991.69
2023-05-07T03:29:42.142Z,99995.47
2023-05-07T03:30:13.568Z,99993.03
2023-05-07T03:30:45.006Z,99996.28
2023-05-07T03:31:16.433Z,99991.13
2023-05-07T03:31:48.003Z,99997.66
2023-05-07T03:32:19.627Z,99994.09
2023-05-07T03:32:51.042Z,100001.72
2023-05-07T03:33:22.538Z,99996.28
2023-05-07T03:33:53.903Z,99999.84
2023-05-07T03:34:25.287Z,99987.88
2023-05-07T03:34:56.690Z,99999.81
2023-05-07T03:35:28.054Z,100002.00
2023-05-07T03:35:59.393Z,99994.66
2023-05-07T03:36:30.790Z,100004.72
2023-05-07T03:37:02.152Z,100002.56
2023-05-07T03:37:33.565Z,100003.91
2023-05-07T03:38:04.973Z,99999.03
2023-05-07T03:38:36.342Z,100002.28
2023-05-07T03:39:07.777Z,100011.25
2023-05-07T03:39:39.149Z,100004.47
2023-05-07T03:40:10.798Z,100009.63
2023-05-07T03:40:42.362Z,100007.19
2023-05-07T03:41:13.776Z,100007.44
2023-05-07T03:41:45.161Z,100003.38
2023-05-07T03:42:16.595Z,99999.56
2023-05-07T03:42:47.907Z,100006.63
2023-05-07T03:43:19.270Z,100003.66
2023-05-07T03:43:50.675Z,100000.91
2023-05-07T03:44:21.996Z,100002.25
2023-05-07T03:44:53.342Z,99995.22
2023-05-07T03:45:24.730Z,99996.53
2023-05-07T03:45:56.199Z,99995.19
2023-05-07T03:46:27.688Z,99998.44
2023-05-07T03:46:59.111Z,100005.78
2023-05-07T03:47:30.547Z,100005.00
2023-05-07T03:48:01.995Z,100000.06
2023-05-07T03:48:33.505Z,100005.78
2023-05-07T03:49:04.847Z,99996.25
2023-05-07T03:49:36.275Z,100004.44
2023-05-07T03:50:07.687Z,100003.88
2023-05-07T03:50:39.254Z,100007.16
2023-05-07T03:51:10.664Z,100003.34
2023-05-07T03:51:42.036Z,100001.72
2023-05-07T03:52:13.474Z,99999.53
2023-05-07T03:52:44.906Z,99999.53
2023-05-07T03:53:16.244Z,100013.41
2023-05-07T03:53:47.713Z,100009.91
2023-05-07T03:54:19.134Z,100003.63
2023-05-07T03:54:50.519Z,100012.06
2023-05-07T03:55:22.028Z,100014.78
2023-05-07T03:55:53.502Z,100015.06
2023-05-07T03:56:24.934Z,100012.63
2023-05-07T03:56:56.339Z,100012.63
2023-05-07T03:57:27.709Z,100010.97
2023-05-07T03:57:59.114Z,100009.63
2023-05-07T03:58:30.514Z,100005.53
2023-05-07T03:59:01.865Z,100013.69
2023-05-07T03:59:33.231Z,100007.16
2023-05-07T04:00:04.612Z,100014.50
2023-05-07T04:00:36.101Z,100012.59
2023-05-07T04:01:07.494Z,100012.31
2023-05-07T04:01:38.888Z,100015.31
2023-05-07T04:02:10.350Z,100021.03
2023-05-07T04:02:41.957Z,100016.13
2023-05-07T04:03:13.711Z,100018.81
2023-05-07T04:03:45.271Z,100016.94
2023-05-07T04:04:16.811Z,100020.47
2023-05-07T04:04:48.296Z,100019.13
2023-05-07T04:05:20.261Z,100012.31
2023-05-07T04:05:51.657Z,100016.69
2023-05-07T04:06:23.026Z,100018.31
2023-05-07T04:06:54.437Z,100020.22
2023-05-07T04:07:25.830Z,100020.75
2023-05-07T04:07:57.198Z,100026.75
2023-05-07T04:08:28.637Z,100024.84
2023-05-07T04:09:00.054Z,100018.03
2023-05-07T04:09:31.551Z,100019.66
2023-05-07T04:10:02.946Z,100018.56
2023-05-07T04:10:34.305Z,100022.91
2023-05-07T04:11:05.677Z,100027.00
2023-05-07T04:11:37.058Z,100016.69
2023-05-07T04:12:08.415Z,100025.09
2023-05-07T04:12:39.775Z,100021.84
2023-05-07T04:13:11.258Z,100029.47
2023-05-07T04:13:42.654Z,100020.78
2023-05-07T04:14:14.075Z,100017.78
2023-05-07T04:14:45.434Z,100021.31
2023-05-07T04:15:16.843Z,100024.56
2023-05-07T04:15:48.282Z,100025.94
2023-05-07T04:16:19.760Z,100020.50
2023-05-07T04:16:51.197Z,100021.03
2023-05-07T04:17:22.808Z,100024.59
2023-05-07T04:17:54.303Z,100025.41
2023-05-07T04:18:25.715Z,100024.84
2023-05-07T04:18:57.074Z,100021.88
2023-05-07T04:19:28.446Z,100025.66
2023-05-07T04:19:59.834Z,100025.94
2023-05-07T04:20:31.201Z,100025.66
2023-05-07T04:21:02.616Z,100028.41
2023-05-07T04:21:33.955Z,100030.28
2023-05-07T04:22:05.478Z,100026.22
2023-05-07T04:22:36.845Z,100032.75
2023-05-07T04:23:08.233Z,100031.09
2023-05-07T04:23:39.597Z,100029.75
2023-05-07T04:24:11.008Z,100034.91
2023-05-07T04:24:42.381Z,100026.50
2023-05-07T04:25:13.733Z,100035.72
2023-05-07T04:25:45.121Z,100031.66
2023-05-07T04:26:16.497Z,100037.91
2023-05-07T04:26:47.825Z,100034.91
2023-05-07T04:27:19.213Z,100030.56
2023-05-07T04:27:50.599Z,100033.03
2023-05-07T04:28:21.979Z,100031.66
2023-05-07T04:28:53.361Z,100036.28
2023-05-07T04:29:24.709Z,100028.41
2023-05-07T04:29:56.072Z,100036.56
2023-05-07T04:30:27.421Z,100032.75
2023-05-07T04:30:58.789Z,100029.47
2023-05-07T04:31:30.268Z,100024.03
2023-05-07T04:32:01.735Z,100021.31
2023-05-07T04:32:33.221Z,100022.13
2023-05-07T04:33:04.660Z,100025.66
2023-05-07T04:33:36.112Z,100024.31
2023-05-07T04:34:07.511Z,100022.94
2023-05-07T04:34:38.955Z,100026.75
2023-05-07T04:35:10.388Z,100018.84
2023-05-07T04:35:41.806Z,100025.41
2023-05-07T04:36:13.193Z,100025.13
2023-05-07T04:36:44.622Z,100025.66
2023-05-07T04:37:16.025Z,100024.03
2023-05-07T04:37:47.474Z,100025.66
2023-05-07T04:38:18.836Z,100032.19
2023-05-07T04:38:50.182Z,100015.88
2023-05-07T04:39:21.546Z,100022.41
2023-05-07T04:39:53.345Z,100026.19
2023-05-07T04:40:24.792Z,100024.56
2023-05-07T04:40:56.179Z,100025.66
2023-05-07T04:41:27.593Z,100027.00
2023-05-07T04:41:58.922Z,100025.09
2023-05-07T04:42:30.280Z,100028.66
2023-05-07T04:43:01.714Z,100024.56
2023-05-07T04:43:33.075Z,100025.94
2023-05-07T04:44:04.427Z,100025.41
2023-05-07T04:44:35.774Z,100031.09
2023-05-07T04:45:07.181Z,100033.28
2023-05-07T04:45:38.618Z,100029.44
2023-05-07T04:46:10.069Z,100028.09
2023-05-07T04:46:41.531Z,100035.97
2023-05-07T04:47:12.913Z,100038.16
2023-05-07T04:47:44.373Z,100028.38
2023-05-07T04:48:15.884Z,100037.38
2023-05-07T04:48:47.243Z,100033.56
2023-05-07T04:49:18.619Z,100030.28
2023-05-07T04:49:49.958Z,100030.28
2023-05-07T04:50:21.354Z,100031.38
2023-05-07T04:50:52.711Z,100030.53
2023-05-07T04:51:24.132Z,100026.19
2023-05-07T04:51:55.639Z,100026.19
2023-05-07T04:52:27.490Z,100030.53
2023-05-07T04:52:58.886Z,100029.47
2023-05-07T04:53:30.281Z,100030.53
2023-05-07T04:54:01.663Z,100032.19
2023-05-07T04:54:33.024Z,100025.91
2023-05-07T04:55:04.405Z,100025.63
2023-05-07T04:55:35.937Z,100028.38
2023-05-07T04:56:07.320Z,100030.53
2023-05-07T04:56:38.720Z,100033.81
2023-05-07T04:57:10.154Z,100039.78
2023-05-07T04:57:41.491Z,100039.53
2023-05-07T04:58:12.941Z,100037.63
2023-05-07T04:58:44.329Z,100040.06
2023-05-07T04:59:15.705Z,100033.81
2023-05-07T04:59:47.084Z,100041.69
2023-05-07T05:00:18.540Z,100041.44
2023-05-07T05:00:49.955Z,100041.16
2023-05-07T05:01:21.344Z,100043.06
2023-05-07T05:01:52.887Z,100040.88
2023-05-07T05:02:24.417Z,100043.88
2023-05-07T05:02:56.035Z,100038.16
2023-05-07T05:03:27.625Z,100039.78
2023-05-07T05:03:59.183Z,100040.84
2023-05-07T05:04:30.559Z,100041.41
2023-05-07T05:05:01.966Z,100042.22
2023-05-07T05:05:33.322Z,100038.44
2023-05-07T05:06:04.698Z,100047.41
2023-05-07T05:06:36.081Z,100039.78
2023-05-07T05:07:07.443Z,100043.59
2023-05-07T05:07:38.797Z,100042.50
2023-05-07T05:08:10.159Z,100043.06
2023-05-07T05:08:41.497Z,100043.34
2023-05-07T05:09:12.955Z,100044.97
2023-05-07T05:09:44.292Z,100043.59
2023-05-07T05:10:15.710Z,100046.59
2023-05-07T05:10:47.126Z,100041.69
2023-05-07T05:11:18.509Z,100048.22
2023-05-07T05:11:49.839Z,100050.13
2023-05-07T05:12:21.233Z,100041.97
2023-05-07T05:12:52.697Z,100048.22
2023-05-07T05:13:24.252Z,100046.31
2023-05-07T05:13:55.695Z,100040.88
2023-05-07T05:14:27.101Z,100043.88
2023-05-07T05:14:58.507Z,100044.16
2023-05-07T05:15:31.726Z,100037.06
2023-05-07T05:16:04.530Z,100040.06
2023-05-07T05:16:36.096Z,100036.53
2023-05-07T05:17:07.459Z,100039.78
2023-05-07T05:17:38.904Z,100044.97
2023-05-07T05:18:10.334Z,100041.16
2023-05-07T05:18:41.735Z,100045.25
2023-05-07T05:19:13.105Z,100043.06
2023-05-07T05:19:44.593Z,100038.44
2023-05-07T05:20:16.028Z,100039.53
2023-05-07T05:20:47.487Z,100043.34
2023-05-07T05:21:18.864Z,100037.06
2023-05-07T05:21:50.200Z,100044.69
2023-05-07T05:22:21.992Z,100039.81
2023-05-07T05:22:53.502Z,100039.81
2023-05-07T05:23:24.844Z,100038.16
2023-05-07T05:23:56.230Z,100041.44
2023-05-07T05:24:27.619Z,100041.16
2023-05-07T05:24:59.047Z,100041.69
2023-05-07T05:25:30.396Z,100043.34
2023-05-07T05:26:01.829Z,100040.63
2023-05-07T05:26:33.199Z,100043.06
2023-05-07T05:27:04.536Z,100043.34
2023-05-07T05:27:35.981Z,100050.41
2023-05-07T05:28:07.386Z,100040.88
2023-05-07T05:28:38.834Z,100047.94
2023-05-07T05:29:10.212Z,100042.53
2023-05-07T05:29:41.570Z,100053.41
2023-05-07T05:30:13.191Z,100053.41
2023-05-07T05:30:44.802Z,100052.84
2023-05-07T05:31:16.180Z,100045.22
2023-05-07T05:31:47.615Z,100043.59
2023-05-07T05:32:19.066Z,100047.69
2023-05-07T05:32:50.474Z,100044.69
2023-05-07T05:33:21.906Z,100045.78
2023-05-07T05:33:53.264Z,100041.16
2023-05-07T05:34:24.666Z,100044.41
2023-05-07T05:34:56.045Z,100052.84
2023-05-07T05:35:27.451Z,100050.13
2023-05-07T05:35:58.830Z,100040.88
2023-05-07T05:36:30.276Z,100047.41
2023-05-07T05:37:01.627Z,100052.28
2023-05-07T05:37:32.973Z,100049.28
2023-05-07T05:38:04.545Z,100046.81
2023-05-07T05:38:35.966Z,100051.19
2023-05-07T05:39:07.357Z,100050.94
2023-05-07T05:39:38.701Z,100052.28
2023-05-07T05:40:10.327Z,100049.56
2023-05-07T05:40:41.921Z,100055.81
2023-05-07T05:41:13.358Z,100053.91
2023-05-07T05:41:44.764Z,100049.84
2023-05-07T05:42:16.132Z,100050.66
2023-05-07T05:42:47.657Z,100047.66
2023-05-07T05:43:19.053Z,100041.69
2023-05-07T05:43:50.416Z,100050.94
2023-05-07T05:44:21.834Z,100046.31
2023-05-07T05:44:53.219Z,100053.66
2023-05-07T05:45:24.614Z,100052.28
2023-05-07T05:45:56.046Z,100048.47
2023-05-07T05:46:27.475Z,100054.72
2023-05-07T05:46:58.918Z,100050.66
2023-05-07T05:47:30.312Z,100048.47
2023-05-07T05:48:01.836Z,100047.13
2023-05-07T05:48:33.247Z,100049.28
2023-05-07T05:49:04.617Z,100055.28
2023-05-07T05:49:35.986Z,100052.00
2023-05-07T05:50:07.348Z,100053.91
2023-05-07T05:50:38.831Z,100053.09
2023-05-07T05:51:10.252Z,100056.09
2023-05-07T05:51:41.634Z,100052.56
2023-05-07T05:52:12.981Z,100054.19
2023-05-07T05:52:44.302Z,100054.75
2023-05-07T05:53:15.707Z,100046.84
2023-05-07T05:53:47.073Z,100058.81
2023-05-07T05:54:18.441Z,100054.47
2023-05-07T05:54:49.831Z,100055.56
2023-05-07T05:55:21.218Z,100055.56
2023-05-07T05:55:52.646Z,100053.91
2023-05-07T05:56:24.073Z,100054.72
2023-05-07T05:56:55.463Z,100051.75
2023-05-07T05:57:28.599Z,100060.44
2023-05-07T05:58:00.340Z,100051.75
2023-05-07T05:58:31.729Z,100047.13
2023-05-07T05:59:03.102Z,100053.66
2023-05-07T05:59:34.624Z,100057.19
2023-05-07T06:00:06.029Z,100061.00